createdAt,value
2017-04-05T00:00:10.836Z,7.00
2017-04-05T00:01:09.314Z,7.00
2017-04-05T00:02:08.544Z,7.00
2017-04-05T00:03:07.770Z,6.90
2017-04-05T00:04:06.647Z,6.90
2017-04-05T00:05:05.104Z,7.00
2017-04-05T00:07:03.965Z,6.90
2017-04-05T00:08:02.460Z,6.80
2017-04-05T00:09:01.677Z,6.90
2017-04-05T00:10:01.213Z,7.00
2017-04-05T00:10:59.826Z,6.90
2017-04-05T00:11:59.047Z,7.10
2017-04-05T00:12:57.530Z,7.00
2017-04-05T00:13:55.991Z,7.10
2017-04-05T00:14:54.473Z,7.00
2017-04-05T00:15:53.236Z,7.00
2017-04-05T00:16:51.697Z,7.00
2017-04-05T00:17:50.156Z,7.00
2017-04-05T00:18:49.393Z,7.00
2017-04-05T00:19:48.617Z,6.90
2017-04-05T00:20:47.845Z,6.90
2017-04-05T00:21:46.689Z,6.90
2017-04-05T00:22:45.159Z,6.90
2017-04-05T00:23:44.384Z,6.80
2017-04-05T00:24:43.605Z,6.90
2017-04-05T00:25:42.073Z,6.80
2017-04-05T00:26:40.526Z,6.90
2017-04-05T00:27:39.316Z,6.90
2017-04-05T00:28:38.068Z,6.90
2017-04-05T00:29:36.524Z,6.90
2017-04-05T00:30:35.780Z,6.90
2017-04-05T00:31:35.000Z,6.90
2017-04-05T00:32:34.248Z,6.90
2017-04-05T00:33:33.788Z,6.90
2017-04-05T00:34:32.250Z,6.90
2017-04-05T00:35:30.783Z,6.90
2017-04-05T00:36:29.991Z,6.90
2017-04-05T00:37:28.459Z,6.80
2017-04-05T00:38:27.676Z,6.90
2017-04-05T00:39:26.528Z,6.80
2017-04-05T00:40:25.007Z,6.90
2017-04-05T00:41:24.231Z,6.90
2017-04-05T00:42:23.500Z,6.90
2017-04-05T00:43:22.757Z,6.80
2017-04-05T00:44:21.980Z,6.80
2017-04-05T00:45:21.491Z,6.80
2017-04-05T00:46:19.960Z,6.70
2017-04-05T00:47:19.204Z,6.80
2017-04-05T00:48:18.440Z,6.80
2017-04-05T00:49:16.892Z,6.70
2017-04-05T00:50:15.376Z,6.80
2017-04-05T00:51:14.978Z,6.70
2017-04-05T00:52:13.461Z,6.70
2017-04-05T00:53:12.036Z,6.70
2017-04-05T00:54:11.300Z,6.70
2017-04-05T00:55:10.516Z,6.70
2017-04-05T00:56:09.768Z,6.70
2017-04-05T00:57:10.052Z,6.60
2017-04-05T00:58:08.513Z,6.60
2017-04-05T00:59:06.973Z,6.70
2017-04-05T01:00:05.500Z,6.70
2017-04-05T01:01:04.760Z,6.70
2017-04-05T01:02:03.224Z,6.60
2017-04-05T01:03:02.068Z,6.60
2017-04-05T01:04:00.524Z,6.60
2017-04-05T01:05:00.022Z,6.60
2017-04-05T01:05:58.522Z,6.60
2017-04-05T01:06:57.067Z,6.60
2017-04-05T01:07:55.532Z,6.70
2017-04-05T01:08:54.295Z,6.70
2017-04-05T01:09:52.756Z,6.70
2017-04-05T01:10:51.231Z,6.70
2017-04-05T01:11:49.699Z,6.70
2017-04-05T01:12:48.922Z,6.60
2017-04-05T01:13:48.140Z,6.60
2017-04-05T01:14:47.670Z,6.60
2017-04-05T01:15:46.197Z,6.60
2017-04-05T01:16:45.421Z,6.70
2017-04-05T01:17:43.904Z,6.60
2017-04-05T01:18:43.124Z,6.70
2017-04-05T01:19:41.628Z,6.60
2017-04-05T01:20:40.480Z,6.60
2017-04-05T01:21:38.956Z,6.60
2017-04-05T01:22:37.453Z,6.60
2017-04-05T01:23:36.672Z,6.60
2017-04-05T01:24:35.903Z,6.50
2017-04-05T01:25:34.395Z,6.50
2017-04-05T01:26:34.039Z,6.50
2017-04-05T01:27:32.507Z,6.40
2017-04-05T01:28:30.999Z,6.40
2017-04-05T01:29:30.252Z,6.40
2017-04-05T01:30:28.745Z,6.30
2017-04-05T01:31:28.028Z,6.30
2017-04-05T01:32:26.850Z,6.30
2017-04-05T01:33:25.316Z,6.30
2017-04-05T01:34:23.784Z,6.30
2017-04-05T01:35:22.318Z,6.30
2017-04-05T01:36:21.585Z,6.30
2017-04-05T01:37:20.837Z,6.30
2017-04-05T01:38:19.612Z,6.20
2017-04-05T01:39:18.108Z,6.30
2017-04-05T01:40:17.377Z,6.30
2017-04-05T01:41:17.349Z,6.20
2017-04-05T01:42:15.892Z,6.20
2017-04-05T01:43:14.360Z,6.30
2017-04-05T01:44:13.968Z,6.30
2017-04-05T01:45:12.457Z,6.20
2017-04-05T01:46:10.922Z,6.30
2017-04-05T01:47:09.399Z,6.30
2017-04-05T01:48:07.877Z,6.20
2017-04-05T01:49:07.112Z,6.20
2017-04-05T01:50:05.949Z,6.20
2017-04-05T01:51:06.596Z,6.20
2017-04-05T01:52:05.831Z,6.20
2017-04-05T01:53:05.063Z,6.20
2017-04-05T01:54:03.521Z,6.20
2017-04-05T01:55:02.039Z,6.20
2017-04-05T01:56:01.688Z,6.10
2017-04-05T01:57:00.185Z,6.10
2017-04-05T01:57:59.416Z,6.10
2017-04-05T01:58:58.692Z,6.10
2017-04-05T01:59:57.165Z,6.00
2017-04-05T02:00:55.669Z,6.10
2017-04-05T02:01:55.260Z,6.10
2017-04-05T02:02:53.739Z,6.00
2017-04-05T02:03:52.240Z,6.10
2017-04-05T02:04:50.700Z,6.10
2017-04-05T02:05:49.920Z,6.00
2017-04-05T02:06:48.404Z,6.00
2017-04-05T02:07:48.024Z,6.00
2017-04-05T02:08:47.259Z,6.00
2017-04-05T02:09:46.548Z,6.00
2017-04-05T02:10:45.004Z,6.00
2017-04-05T02:11:43.476Z,6.00
2017-04-05T02:12:41.923Z,6.00
2017-04-05T02:13:40.754Z,6.00
2017-04-05T02:14:39.976Z,6.00
2017-04-05T02:15:38.431Z,6.00
2017-04-05T02:16:36.906Z,6.00
2017-04-05T02:17:36.156Z,6.00
2017-04-05T02:18:35.395Z,6.00
2017-04-05T02:19:34.157Z,5.90
2017-04-05T02:20:33.375Z,6.00
2017-04-05T02:21:31.862Z,5.90
2017-04-05T02:22:31.094Z,6.00
2017-04-05T02:23:29.559Z,5.90
2017-04-05T02:24:28.029Z,6.00
2017-04-05T02:25:26.787Z,6.00
2017-04-05T02:26:25.240Z,6.00
2017-04-05T02:27:23.721Z,6.00
2017-04-05T02:28:22.189Z,6.00
2017-04-05T02:29:20.667Z,6.00
2017-04-05T02:30:19.902Z,6.00
2017-04-05T02:31:18.713Z,6.00
2017-04-05T02:32:17.965Z,6.10
2017-04-05T02:33:16.526Z,6.00
2017-04-05T02:34:14.988Z,6.00
2017-04-05T02:35:13.444Z,6.10
2017-04-05T02:36:12.688Z,6.10
2017-04-05T02:37:11.546Z,6.10
2017-04-05T02:38:10.002Z,6.20
2017-04-05T02:39:08.508Z,6.20
2017-04-05T02:40:06.996Z,6.20
2017-04-05T02:41:06.249Z,6.20
2017-04-05T02:42:04.728Z,6.10
2017-04-05T02:43:03.568Z,6.20
2017-04-05T02:44:02.024Z,6.20
2017-04-05T02:45:00.477Z,6.20
2017-04-05T02:45:58.956Z,6.20
2017-04-05T02:46:58.188Z,6.30
2017-04-05T02:47:57.440Z,6.20
2017-04-05T02:48:56.288Z,6.20
2017-04-05T02:49:54.747Z,6.20
2017-04-05T02:50:53.240Z,6.20
2017-04-05T02:51:51.710Z,6.30
2017-04-05T02:52:50.186Z,6.20
2017-04-05T02:53:48.672Z,6.20
2017-04-05T02:54:48.213Z,6.30
2017-04-05T02:55:46.696Z,6.20
2017-04-05T02:56:45.190Z,6.30
2017-04-05T02:57:44.462Z,6.30
2017-04-05T02:58:42.943Z,6.20
2017-04-05T02:59:42.165Z,6.30
2017-04-05T03:00:41.772Z,6.30
2017-04-05T03:01:40.217Z,6.30
2017-04-05T03:02:38.684Z,6.30
2017-04-05T03:03:37.141Z,6.40
2017-04-05T03:04:35.729Z,6.40
2017-04-05T03:05:34.195Z,6.40
2017-04-05T03:06:33.792Z,6.40
2017-04-05T03:07:33.010Z,6.30
2017-04-05T03:08:32.248Z,6.40
2017-04-05T03:09:30.719Z,6.30
2017-04-05T03:10:30.319Z,6.40
2017-04-05T03:11:29.537Z,6.30
2017-04-05T03:12:29.068Z,6.40
2017-04-05T03:13:27.512Z,6.40
2017-04-05T03:14:26.756Z,6.40
2017-04-05T03:15:25.228Z,6.40
2017-04-05T03:16:24.458Z,6.50
2017-04-05T03:17:23.008Z,6.40
2017-04-05T03:18:21.805Z,6.50
2017-04-05T03:19:20.275Z,6.50
2017-04-05T03:20:18.731Z,6.50
2017-04-05T03:21:17.998Z,6.50
2017-04-05T03:22:16.464Z,6.50
2017-04-05T03:23:14.913Z,6.50
2017-04-05T03:24:14.440Z,6.50
2017-04-05T03:25:12.968Z,6.40
2017-04-05T03:26:12.196Z,6.50
2017-04-05T03:27:11.420Z,6.50
2017-04-05T03:28:10.657Z,6.50
2017-04-05T03:29:09.884Z,6.60
2017-04-05T03:30:09.423Z,6.60
2017-04-05T03:31:07.937Z,6.50
2017-04-05T03:32:07.164Z,6.60
2017-04-05T03:33:05.700Z,6.50
2017-04-05T03:34:04.932Z,6.60
2017-04-05T03:35:03.425Z,6.50
2017-04-05T03:36:03.692Z,6.60
2017-04-05T03:37:02.940Z,6.60
2017-04-05T03:38:02.184Z,6.60
2017-04-05T03:39:00.633Z,6.60
2017-04-05T03:39:59.100Z,6.60
2017-04-05T03:40:57.548Z,6.60
2017-04-05T03:41:56.381Z,6.60
2017-04-05T03:42:55.596Z,6.60
2017-04-05T03:43:54.835Z,6.60
2017-04-05T03:44:53.284Z,6.60
2017-04-05T03:45:51.757Z,6.70
2017-04-05T03:46:50.221Z,6.70
2017-04-05T03:47:49.056Z,6.60
2017-04-05T03:48:47.540Z,6.70
2017-04-05T03:49:46.051Z,6.70
2017-04-05T03:50:45.301Z,6.70
2017-04-05T03:51:43.778Z,6.60
2017-04-05T03:52:42.255Z,6.70
2017-04-05T03:53:41.792Z,6.80
2017-04-05T03:54:40.292Z,6.70
2017-04-05T03:55:38.752Z,6.80
2017-04-05T03:56:37.976Z,6.90
2017-04-05T03:57:37.223Z,6.90
2017-04-05T03:58:35.913Z,6.80
2017-04-05T03:59:36.057Z,6.90
2017-04-05T04:00:35.013Z,6.90
2017-04-05T04:01:33.476Z,7.00
2017-04-05T04:02:32.308Z,7.00
2017-04-05T04:03:30.763Z,7.00
2017-04-05T04:04:29.264Z,7.00
2017-04-05T04:05:28.226Z,7.00
2017-04-05T04:06:28.036Z,7.00
2017-04-05T04:07:27.349Z,6.90
2017-04-05T04:08:26.587Z,7.00
2017-04-05T04:09:25.110Z,6.90
2017-04-05T04:10:23.717Z,6.90
2017-04-05T04:11:23.589Z,7.00
2017-04-05T04:12:22.135Z,7.00
2017-04-05T04:13:20.754Z,7.00
2017-04-05T04:14:19.220Z,7.00
2017-04-05T04:15:17.700Z,7.00
2017-04-05T04:16:16.934Z,7.00
2017-04-05T04:17:15.716Z,7.00
2017-04-05T04:18:14.184Z,7.00
2017-04-05T04:19:13.420Z,7.00
2017-04-05T04:20:11.901Z,7.00
2017-04-05T04:21:10.393Z,7.10
2017-04-05T04:22:08.869Z,7.00
2017-04-05T04:23:07.777Z,7.00
2017-04-05T04:24:07.188Z,7.00
2017-04-05T04:25:06.509Z,6.90
2017-04-05T04:26:05.922Z,6.90
2017-04-05T04:27:05.272Z,6.90
2017-04-05T04:28:03.748Z,6.90
2017-04-05T04:29:02.598Z,6.90
2017-04-05T04:30:01.676Z,6.90
2017-04-05T04:31:00.979Z,6.90
2017-04-05T04:32:00.236Z,6.90
2017-04-05T04:32:59.518Z,6.90
2017-04-05T04:33:57.972Z,6.80
2017-04-05T04:34:57.512Z,6.90
2017-04-05T04:35:55.996Z,6.80
2017-04-05T04:36:55.220Z,6.90
2017-04-05T04:37:53.712Z,6.90
2017-04-05T04:38:52.211Z,6.90
2017-04-05T04:39:51.433Z,7.00
2017-04-05T04:40:51.208Z,7.10
2017-04-05T04:41:49.672Z,7.00
2017-04-05T04:42:48.145Z,7.10
2017-04-05T04:43:46.633Z,7.10
2017-04-05T04:44:45.100Z,7.00
2017-04-05T04:45:43.621Z,7.10
2017-04-05T04:46:43.136Z,7.10
2017-04-05T04:47:42.356Z,7.10
2017-04-05T04:48:40.796Z,7.00
2017-04-05T04:49:40.029Z,7.10
2017-04-05T04:50:39.253Z,7.10
2017-04-05T04:51:38.486Z,7.10
2017-04-05T04:52:38.353Z,7.20
2017-04-05T04:53:36.968Z,7.10
2017-04-05T04:54:36.205Z,7.10
2017-04-05T04:55:35.451Z,7.10
2017-04-05T04:56:34.672Z,7.10
2017-04-05T04:57:33.349Z,7.10
2017-04-05T04:58:32.208Z,7.10
2017-04-05T04:59:31.476Z,7.10
2017-04-05T05:00:30.712Z,7.20
2017-04-05T05:01:29.931Z,7.30
2017-04-05T05:02:29.168Z,7.30
2017-04-05T05:03:27.712Z,7.20
2017-04-05T05:04:26.460Z,7.30
2017-04-05T05:05:24.909Z,7.30
2017-04-05T05:06:24.140Z,7.30
2017-04-05T05:07:22.625Z,7.30
2017-04-05T05:08:21.921Z,7.30
2017-04-05T05:09:21.147Z,7.30
2017-04-05T05:10:19.929Z,7.30
2017-04-05T05:11:18.393Z,7.30
2017-04-05T05:12:16.852Z,7.30
2017-04-05T05:13:15.316Z,7.30
2017-04-05T05:14:14.560Z,7.30
2017-04-05T05:15:13.788Z,7.30
2017-04-05T05:16:12.552Z,7.30
2017-04-05T05:17:11.015Z,7.30
2017-04-05T05:18:09.505Z,7.40
2017-04-05T05:19:08.732Z,7.50
2017-04-05T05:20:07.961Z,7.50
2017-04-05T05:21:07.383Z,7.50
2017-04-05T05:22:06.954Z,7.50
2017-04-05T05:23:05.399Z,7.40
2017-04-05T05:24:03.853Z,7.40
2017-04-05T05:25:02.325Z,7.40
2017-04-05T05:26:00.781Z,7.40
2017-04-05T05:26:59.236Z,7.40
2017-04-05T05:27:58.769Z,7.50
2017-04-05T05:28:57.240Z,7.40
2017-04-05T05:29:55.709Z,7.50
2017-04-05T05:30:54.169Z,7.60
2017-04-05T05:31:52.632Z,7.60
2017-04-05T05:32:52.601Z,7.50
2017-04-05T05:33:51.485Z,7.50
2017-04-05T05:34:50.725Z,7.60
2017-04-05T05:35:49.972Z,7.60
2017-04-05T05:36:48.455Z,7.50
2017-04-05T05:37:47.765Z,7.60
2017-04-05T05:38:47.000Z,7.60
2017-04-05T05:39:46.566Z,7.60
2017-04-05T05:40:45.067Z,7.50
2017-04-05T05:41:44.328Z,7.60
2017-04-05T05:42:43.561Z,7.60
2017-04-05T05:43:42.784Z,7.60
2017-04-05T05:44:41.249Z,7.60
2017-04-05T05:45:40.007Z,7.60
2017-04-05T05:46:45.156Z,7.60
2017-04-05T05:47:43.637Z,7.60
2017-04-05T05:48:43.605Z,7.60
2017-04-05T05:49:42.081Z,7.60
2017-04-05T05:50:40.844Z,7.70
2017-04-05T05:51:39.633Z,7.70
2017-04-05T05:52:38.117Z,7.70
2017-04-05T05:53:36.577Z,7.80
2017-04-05T05:54:36.103Z,7.90
2017-04-05T05:55:34.607Z,7.80
2017-04-05T05:56:34.160Z,7.90
2017-04-05T05:57:32.693Z,7.90
2017-04-05T05:58:31.957Z,8.00
2017-04-05T05:59:30.400Z,8.00
2017-04-05T06:00:28.953Z,8.10
2017-04-05T06:01:27.440Z,8.10
2017-04-05T06:02:27.024Z,8.10
2017-04-05T06:03:25.493Z,8.00
2017-04-05T06:04:23.944Z,8.10
2017-04-05T06:05:23.192Z,8.00
2017-04-05T06:06:22.425Z,8.00
2017-04-05T06:07:20.913Z,8.00
2017-04-05T06:08:19.756Z,8.00
2017-04-05T06:09:19.008Z,8.20
2017-04-05T06:10:17.517Z,8.20
2017-04-05T06:11:16.000Z,8.20
2017-04-05T06:12:14.463Z,8.20
2017-04-05T06:13:12.949Z,8.30
2017-04-05T06:14:12.593Z,8.30
2017-04-05T06:15:11.810Z,8.40
2017-04-05T06:16:11.770Z,8.30
2017-04-05T06:17:10.295Z,8.30
2017-04-05T06:18:08.876Z,8.40
2017-04-05T06:19:07.397Z,8.40
2017-04-05T06:20:06.185Z,8.40
2017-04-05T06:21:05.472Z,8.40
2017-04-05T06:22:05.026Z,8.40
2017-04-05T06:23:03.493Z,8.40
2017-04-05T06:24:01.989Z,8.40
2017-04-05T06:25:01.216Z,8.40
2017-04-05T06:26:00.009Z,8.30
2017-04-05T06:26:59.241Z,8.40
2017-04-05T06:27:58.460Z,8.40
2017-04-05T06:28:56.942Z,8.40
2017-04-05T06:29:55.412Z,8.40
2017-04-05T06:30:53.868Z,8.40
2017-04-05T06:31:53.420Z,8.50
2017-04-05T06:32:52.648Z,8.50
2017-04-05T06:33:51.111Z,8.50
2017-04-05T06:34:49.585Z,8.50
2017-04-05T06:35:48.103Z,8.50
2017-04-05T06:36:46.568Z,8.60
2017-04-05T06:37:45.372Z,8.50
2017-04-05T06:38:43.816Z,8.50
2017-04-05T06:39:42.288Z,8.50
2017-04-05T06:40:41.536Z,8.60
2017-04-05T06:41:40.008Z,8.60
2017-04-05T06:42:39.292Z,8.70
2017-04-05T06:43:38.865Z,8.70
2017-04-05T06:44:38.096Z,8.70
2017-04-05T06:45:36.613Z,8.60
2017-04-05T06:46:35.084Z,8.70
2017-04-05T06:47:34.315Z,8.70
2017-04-05T06:48:32.776Z,8.60
2017-04-05T06:49:31.556Z,8.70
2017-04-05T06:50:30.037Z,8.70
2017-04-05T06:51:29.275Z,8.70
2017-04-05T06:52:27.753Z,8.70
2017-04-05T06:53:26.226Z,8.80
2017-04-05T06:54:24.685Z,8.80
2017-04-05T06:55:23.472Z,8.80
2017-04-05T06:56:21.941Z,8.90
2017-04-05T06:57:20.417Z,8.90
2017-04-05T06:58:19.649Z,8.90
2017-04-05T06:59:18.148Z,8.90
2017-04-05T07:00:16.644Z,8.90
2017-04-05T07:01:15.380Z,8.90
2017-04-05T07:02:13.852Z,8.90
2017-04-05T07:03:13.128Z,8.90
2017-04-05T07:04:11.600Z,8.80
2017-04-05T07:05:10.124Z,8.90
2017-04-05T07:06:09.357Z,8.90
2017-04-05T07:07:08.629Z,8.90
2017-04-05T07:08:07.155Z,9.00
2017-04-05T07:09:06.637Z,9.00
2017-04-05T07:10:05.880Z,9.00
2017-04-05T07:11:04.356Z,8.90
2017-04-05T07:12:02.826Z,9.00
2017-04-05T07:13:01.606Z,9.00
2017-04-05T07:14:01.599Z,8.90
2017-04-05T07:15:00.056Z,8.90
2017-04-05T07:15:58.524Z,9.00
2017-04-05T07:16:56.981Z,8.90
2017-04-05T07:17:55.444Z,8.90
2017-04-05T07:18:54.304Z,8.90
2017-04-05T07:19:52.851Z,8.90
2017-04-05T07:20:52.093Z,8.90
2017-04-05T07:21:51.324Z,8.80
2017-04-05T07:22:49.780Z,8.70
2017-04-05T07:23:49.007Z,8.70
2017-04-05T07:24:47.861Z,8.70
2017-04-05T07:25:46.332Z,8.80
2017-04-05T07:26:45.552Z,8.90
2017-04-05T07:27:44.781Z,8.90
2017-04-05T07:28:43.274Z,8.90
2017-04-05T07:29:41.775Z,8.90
2017-04-05T07:30:41.313Z,8.90
2017-04-05T07:31:39.772Z,8.80
2017-04-05T07:32:38.279Z,8.80
2017-04-05T07:33:36.724Z,8.90
2017-04-05T07:34:35.197Z,8.90
2017-04-05T07:35:34.029Z,8.90
2017-04-05T07:36:32.818Z,9.00
2017-04-05T07:37:31.319Z,9.00
2017-04-05T07:38:30.553Z,9.10
2017-04-05T07:39:29.046Z,9.00
2017-04-05T07:40:27.531Z,9.10
2017-04-05T07:41:26.884Z,9.10
2017-04-05T07:42:26.463Z,9.10
2017-04-05T07:43:24.964Z,9.00
2017-04-05T07:44:23.445Z,9.10
2017-04-05T07:45:22.677Z,9.00
2017-04-05T07:46:21.135Z,9.00
2017-04-05T07:47:19.612Z,9.00
2017-04-05T07:48:18.663Z,9.00
2017-04-05T07:49:17.120Z,9.10
2017-04-05T07:50:16.360Z,9.10
2017-04-05T07:51:14.845Z,9.10
2017-04-05T07:52:14.097Z,9.20
2017-04-05T07:53:12.568Z,9.10
2017-04-05T07:54:12.155Z,9.20
2017-04-05T07:55:11.387Z,9.20
2017-04-05T07:56:10.609Z,9.20
2017-04-05T07:57:09.116Z,9.20
2017-04-05T07:58:07.579Z,9.20
2017-04-05T07:59:06.844Z,9.30
2017-04-05T08:00:05.693Z,9.20
2017-04-05T08:01:04.956Z,9.30
2017-04-05T08:02:03.417Z,9.20
2017-04-05T08:03:02.659Z,9.40
2017-04-05T08:04:01.113Z,9.30
2017-04-05T08:05:01.076Z,9.30
2017-04-05T08:05:59.857Z,9.30
2017-04-05T08:06:58.317Z,9.40
2017-04-05T08:07:56.767Z,9.50
2017-04-05T08:08:55.248Z,9.50
2017-04-05T08:09:54.463Z,9.60
2017-04-05T08:10:52.930Z,9.50
2017-04-05T08:11:53.317Z,9.50
2017-04-05T08:12:51.784Z,9.50
2017-04-05T08:13:51.038Z,9.60
2017-04-05T08:14:49.600Z,9.60
2017-04-05T08:15:48.087Z,9.70
2017-04-05T08:16:46.573Z,9.80
2017-04-05T08:17:45.433Z,9.90
2017-04-05T08:18:43.913Z,10.00
2017-04-05T08:19:42.393Z,10.00
2017-04-05T08:20:42.402Z,10.00
2017-04-05T08:21:40.867Z,10.00
2017-04-05T08:22:39.333Z,10.20
2017-04-05T08:23:38.168Z,10.20
2017-04-05T08:24:37.429Z,10.30
2017-04-05T08:25:35.908Z,10.20
2017-04-05T08:26:34.368Z,10.30
2017-04-05T08:27:32.836Z,10.40
2017-04-05T08:28:31.313Z,10.50
2017-04-05T08:29:30.190Z,10.50
2017-04-05T08:30:29.449Z,10.70
2017-04-05T08:31:27.933Z,10.60
2017-04-05T08:32:26.409Z,10.80
2017-04-05T08:33:24.892Z,11.00
2017-04-05T08:34:24.913Z,11.00
2017-04-05T08:35:24.432Z,11.10
2017-04-05T08:36:23.744Z,11.10
2017-04-05T08:37:23.047Z,11.10
2017-04-05T08:38:21.534Z,11.10
2017-04-05T08:39:20.808Z,11.00
2017-04-05T08:40:19.313Z,10.90
2017-04-05T08:41:18.938Z,10.90
2017-04-05T08:42:17.413Z,10.80
2017-04-05T08:43:15.886Z,11.00
2017-04-05T08:44:14.372Z,10.90
2017-04-05T08:45:13.613Z,10.90
2017-04-05T08:46:12.128Z,10.90
2017-04-05T08:47:11.665Z,11.00
2017-04-05T08:48:10.157Z,11.00
2017-04-05T08:49:08.694Z,11.00
2017-04-05T08:50:07.978Z,11.20
2017-04-05T08:51:06.469Z,11.10
2017-04-05T08:52:04.957Z,11.30
2017-04-05T08:53:04.602Z,11.60
2017-04-05T08:54:03.069Z,11.50
2017-04-05T08:55:02.316Z,11.70
2017-04-05T08:56:00.779Z,11.70
2017-04-05T08:56:59.251Z,11.90
2017-04-05T08:57:57.729Z,11.80
2017-04-05T08:58:56.514Z,11.80
2017-04-05T08:59:55.006Z,11.80
2017-04-05T09:00:54.978Z,11.80
2017-04-05T09:01:53.453Z,11.80
2017-04-05T09:02:51.913Z,11.80
2017-04-05T09:03:50.421Z,11.70
2017-04-05T09:04:50.108Z,11.60
2017-04-05T09:05:49.357Z,11.60
2017-04-05T09:06:47.876Z,11.60
2017-04-05T09:07:47.152Z,11.60
2017-04-05T09:08:46.384Z,11.70
2017-04-05T09:09:44.852Z,11.60
2017-04-05T09:10:43.625Z,11.70
2017-04-05T09:11:42.097Z,11.70
2017-04-05T09:12:40.560Z,11.70
2017-04-05T09:13:39.262Z,11.70
2017-04-05T09:14:38.503Z,11.70
2017-04-05T09:15:36.960Z,11.60
2017-04-05T09:16:36.561Z,11.60
2017-04-05T09:17:35.029Z,11.60
2017-04-05T09:18:33.510Z,11.60
2017-04-05T09:19:33.515Z,11.50
2017-04-05T09:20:31.993Z,11.50
2017-04-05T09:21:30.469Z,11.60
2017-04-05T09:22:29.992Z,11.60
2017-04-05T09:23:28.523Z,11.60
2017-04-05T09:24:27.751Z,12.00
2017-04-05T09:25:26.228Z,12.00
2017-04-05T09:26:25.496Z,12.40
2017-04-05T09:27:23.956Z,12.30
2017-04-05T09:28:23.161Z,12.40
2017-04-05T09:29:21.664Z,12.50
2017-04-05T09:30:20.930Z,12.50
2017-04-05T09:31:19.405Z,12.50
2017-04-05T09:32:18.676Z,12.60
2017-04-05T09:33:17.160Z,12.60
2017-04-05T09:34:16.816Z,12.80
2017-04-05T09:35:15.301Z,12.80
2017-04-05T09:36:13.781Z,13.10
2017-04-05T09:37:12.260Z,13.50
2017-04-05T09:38:11.498Z,14.00
2017-04-05T09:39:10.779Z,14.20
2017-04-05T09:40:09.652Z,14.20
2017-04-05T09:41:08.885Z,14.40
2017-04-05T09:42:08.145Z,14.60
2017-04-05T09:43:06.608Z,14.60
2017-04-05T09:44:05.848Z,14.90
2017-04-05T09:45:05.087Z,14.90
2017-04-05T09:46:04.618Z,14.70
2017-04-05T09:47:03.090Z,14.70
2017-04-05T09:48:02.325Z,14.50
2017-04-05T09:49:01.552Z,14.30
2017-04-05T09:50:00.800Z,14.10
2017-04-05T09:51:00.037Z,13.90
2017-04-05T09:51:59.616Z,13.70
2017-04-05T09:52:58.092Z,13.70
2017-04-05T09:53:56.596Z,13.70
2017-04-05T09:54:55.828Z,13.30
2017-04-05T09:55:55.055Z,13.10
2017-04-05T09:56:54.305Z,12.90
2017-04-05T09:57:53.132Z,12.90
2017-04-05T09:58:51.596Z,12.70
2017-04-05T09:59:50.907Z,12.50
2017-04-05T10:00:49.387Z,12.40
2017-04-05T10:01:47.879Z,12.30
2017-04-05T10:02:46.344Z,12.20
2017-04-05T10:03:46.619Z,12.00
2017-04-05T10:04:45.107Z,12.00
2017-04-05T10:05:43.621Z,12.00
2017-04-05T10:06:42.107Z,11.90
2017-04-05T10:07:41.330Z,11.70
2017-04-05T10:08:39.824Z,11.60
2017-04-05T10:09:39.357Z,11.50
2017-04-05T10:10:38.616Z,11.50
2017-04-05T10:11:37.124Z,11.40
2017-04-05T10:12:35.616Z,11.30
2017-04-05T10:13:34.893Z,11.30
2017-04-05T10:14:34.148Z,11.30
2017-04-05T10:15:33.167Z,11.20
2017-04-05T10:16:32.389Z,11.20
2017-04-05T10:17:31.649Z,11.20
2017-04-05T10:18:30.122Z,11.20
2017-04-05T10:19:29.363Z,11.30
2017-04-05T10:20:28.607Z,11.40
2017-04-05T10:21:27.379Z,11.40
2017-04-05T10:22:26.624Z,11.60
2017-04-05T10:23:25.911Z,11.70
2017-04-05T10:24:25.193Z,11.80
2017-04-05T10:25:24.440Z,12.00
2017-04-05T10:26:22.956Z,12.00
2017-04-05T10:27:21.752Z,12.10
2017-04-05T10:28:20.256Z,12.30
2017-04-05T10:29:20.236Z,12.60
2017-04-05T10:30:18.729Z,12.60
2017-04-05T10:31:17.966Z,13.00
2017-04-05T10:32:16.860Z,13.00
2017-04-05T10:33:16.446Z,13.40
2017-04-05T10:34:14.932Z,13.30
2017-04-05T10:35:13.434Z,13.30
2017-04-05T10:36:11.921Z,13.30
2017-04-05T10:37:10.412Z,13.40
2017-04-05T10:38:08.872Z,13.40
2017-04-05T10:39:07.745Z,13.40
2017-04-05T10:40:06.256Z,13.40
2017-04-05T10:41:05.497Z,13.40
2017-04-05T10:42:03.995Z,13.30
2017-04-05T10:43:03.233Z,13.30
2017-04-05T10:44:01.704Z,13.30
2017-04-05T10:45:00.464Z,13.20
2017-04-05T10:45:59.697Z,12.90
2017-04-05T10:46:58.946Z,12.60
2017-04-05T10:47:57.408Z,12.60
2017-04-05T10:48:55.877Z,12.50
2017-04-05T10:49:54.348Z,12.50
2017-04-05T10:50:53.266Z,12.30
2017-04-05T10:51:51.772Z,12.40
2017-04-05T10:52:50.219Z,12.40
2017-04-05T10:53:49.461Z,12.50
2017-04-05T10:54:48.691Z,12.60
2017-04-05T10:55:47.159Z,12.60
2017-04-05T10:56:46.038Z,12.70
2017-04-05T10:57:44.499Z,12.80
2017-04-05T10:58:42.961Z,12.90
2017-04-05T10:59:41.433Z,12.90
2017-04-05T11:00:39.924Z,13.00
2017-04-05T11:01:39.173Z,13.20
2017-04-05T11:02:37.957Z,13.20
2017-04-05T11:03:36.474Z,13.30
2017-04-05T11:04:35.696Z,13.40
2017-04-05T11:05:34.185Z,13.40
2017-04-05T11:06:32.664Z,13.50
2017-04-05T11:07:31.135Z,13.50
2017-04-05T11:08:29.972Z,13.60
2017-04-05T11:09:28.452Z,13.70
2017-04-05T11:10:26.928Z,13.60
2017-04-05T11:11:25.431Z,13.70
2017-04-05T11:12:23.899Z,13.80
2017-04-05T11:13:22.369Z,13.90
2017-04-05T11:14:21.169Z,13.80
2017-04-05T11:15:19.658Z,13.60
2017-04-05T11:16:18.117Z,13.40
2017-04-05T11:17:16.652Z,13.10
2017-04-05T11:18:15.124Z,12.90
2017-04-05T11:19:13.613Z,12.80
2017-04-05T11:20:12.475Z,12.70
2017-04-05T11:21:11.704Z,12.80
2017-04-05T11:22:10.957Z,13.00
2017-04-05T11:23:09.416Z,13.00
2017-04-05T11:24:07.888Z,13.20
2017-04-05T11:25:06.421Z,13.40
2017-04-05T11:26:05.217Z,13.60
2017-04-05T11:27:04.455Z,14.10
2017-04-05T11:28:02.924Z,14.00
2017-04-05T11:29:02.152Z,14.70
2017-04-05T11:30:00.624Z,14.70
2017-04-05T11:30:59.090Z,15.10
2017-04-05T11:31:57.937Z,15.30
2017-04-05T11:32:56.404Z,15.10
2017-04-05T11:33:54.865Z,15.30
2017-04-05T11:34:54.086Z,15.50
2017-04-05T11:35:52.560Z,15.40
2017-04-05T11:36:51.790Z,15.80
2017-04-05T11:37:50.564Z,15.70
2017-04-05T11:38:49.812Z,15.90
2017-04-05T11:39:49.057Z,16.00
2017-04-05T11:40:49.023Z,15.90
2017-04-05T11:41:47.489Z,15.90
2017-04-05T11:42:45.953Z,15.90
2017-04-05T11:43:45.516Z,15.60
2017-04-05T11:44:43.989Z,15.50
2017-04-05T11:45:42.474Z,15.60
2017-04-05T11:46:40.927Z,15.50
2017-04-05T11:47:40.165Z,15.40
2017-04-05T11:48:39.422Z,15.40
2017-04-05T11:49:39.009Z,15.20
2017-04-05T11:50:38.301Z,15.20
2017-04-05T11:51:37.527Z,15.30
2017-04-05T11:52:36.776Z,15.30
2017-04-05T11:53:36.008Z,15.10
2017-04-05T11:54:34.472Z,15.00
2017-04-05T11:55:33.372Z,14.80
2017-04-05T11:56:31.840Z,14.80
2017-04-05T11:57:30.302Z,14.80
2017-04-05T11:58:29.644Z,14.60
2017-04-05T11:59:28.904Z,14.60
2017-04-05T12:00:27.400Z,14.50
2017-04-05T12:01:26.323Z,14.50
2017-04-05T12:02:24.872Z,14.30
2017-04-05T12:03:24.116Z,14.20
2017-04-05T12:04:22.609Z,14.10
2017-04-05T12:05:21.092Z,14.00
2017-04-05T12:06:20.333Z,13.90
2017-04-05T12:07:19.869Z,13.80
2017-04-05T12:08:18.344Z,13.80
2017-04-05T12:09:17.625Z,13.80
2017-04-05T12:10:16.125Z,13.80
2017-04-05T12:11:15.385Z,14.10
2017-04-05T12:12:13.880Z,14.10
2017-04-05T12:13:13.525Z,14.20
2017-04-05T12:14:12.967Z,14.30
2017-04-05T12:15:12.264Z,14.20
2017-04-05T12:16:11.543Z,14.10
2017-04-05T12:17:10.776Z,14.00
2017-04-05T12:18:09.311Z,14.00
2017-04-05T12:19:08.097Z,14.10
2017-04-05T12:20:06.601Z,14.20
2017-04-05T12:21:05.101Z,14.30
2017-04-05T12:22:03.572Z,14.40
2017-04-05T12:23:02.070Z,14.50
2017-04-05T12:24:00.561Z,14.40
2017-04-05T12:25:00.841Z,14.30
2017-04-05T12:25:59.320Z,14.30
2017-04-05T12:26:59.302Z,14.10
2017-04-05T12:27:57.836Z,14.10
2017-04-05T12:28:56.304Z,14.10
2017-04-05T12:29:54.780Z,14.10
2017-04-05T12:30:53.527Z,14.10
2017-04-05T12:31:52.008Z,14.10
2017-04-05T12:32:50.483Z,14.10
2017-04-05T12:33:49.020Z,14.20
2017-04-05T12:34:48.273Z,14.60
2017-04-05T12:35:47.524Z,14.80
2017-04-05T12:36:46.320Z,14.70
2017-04-05T12:37:44.804Z,15.00
2017-04-05T12:38:43.591Z,15.20
2017-04-05T12:39:42.848Z,15.20
2017-04-05T12:40:41.324Z,15.20
2017-04-05T12:41:39.792Z,14.90
2017-04-05T12:45:37.667Z,14.80
2017-04-05T12:46:36.901Z,14.80
2017-04-05T12:47:35.372Z,14.80
2017-04-05T12:48:34.221Z,14.80
2017-04-05T12:49:32.704Z,14.80
2017-04-05T12:50:31.196Z,14.90
2017-04-05T12:51:30.432Z,14.80
2017-04-05T12:52:29.672Z,14.80
2017-04-05T12:53:28.909Z,14.70
2017-04-05T12:54:28.445Z,14.70
2017-04-05T12:55:27.696Z,14.50
2017-04-05T12:56:26.183Z,14.40
2017-04-05T12:57:25.420Z,14.30
2017-04-05T12:58:23.930Z,14.30